sensor_id;sensor_type;location;lat;lon;timestamp;temperature;humidity
52615;DHT22;38508;53.158;6.614;2023-04-03T00:00:56;5.70;99.90
52615;DHT22;38508;53.158;6.614;2023-04-03T00:03:21;5.60;99.90
52615;DHT22;38508;53.158;6.614;2023-04-03T00:05:47;5.60;99.90
52615;DHT22;38508;53.158;6.614;2023-04-03T00:08:13;5.60;99.90
52615;DHT22;38508;53.158;6.614;2023-04-03T00:10:38;5.60;99.90
52615;DHT22;38508;53.158;6.614;2023-04-03T00:13:05;5.70;99.90
52615;DHT22;38508;53.158;6.614;2023-04-03T00:15:31;5.60;99.90
52615;DHT22;38508;53.158;6.614;2023-04-03T00:17:57;5.60;99.90
52615;DHT22;38508;53.158;6.614;2023-04-03T00:20:22;5.60;99.90
52615;DHT22;38508;53.158;6.614;2023-04-03T00:22:48;5.50;99.90
52615;DHT22;38508;53.158;6.614;2023-04-03T00:25:14;5.50;99.90
52615;DHT22;38508;53.158;6.614;2023-04-03T00:27:40;5.40;99.90
52615;DHT22;38508;53.158;6.614;2023-04-03T00:30:08;5.30;99.90
52615;DHT22;38508;53.158;6.614;2023-04-03T00:32:34;5.30;99.90
52615;DHT22;38508;53.158;6.614;2023-04-03T00:34:59;5.20;99.90
52615;DHT22;38508;53.158;6.614;2023-04-03T00:37:25;5.20;99.90
52615;DHT22;38508;53.158;6.614;2023-04-03T00:39:51;5.20;99.90
52615;DHT22;38508;53.158;6.614;2023-04-03T00:42:17;5.30;99.90
52615;DHT22;38508;53.158;6.614;2023-04-03T00:47:13;5.40;99.90
52615;DHT22;38508;53.158;6.614;2023-04-03T00:49:41;5.40;99.90
52615;DHT22;38508;53.158;6.614;2023-04-03T00:52:11;5.20;99.90
52615;DHT22;38508;53.158;6.614;2023-04-03T00:54:40;5.10;99.90
52615;DHT22;38508;53.158;6.614;2023-04-03T00:57:07;5.30;99.90
52615;DHT22;38508;53.158;6.614;2023-04-03T00:59:38;5.10;99.90
52615;DHT22;38508;53.158;6.614;2023-04-03T01:02:05;5.20;99.90
52615;DHT22;38508;53.158;6.614;2023-04-03T01:04:36;5.30;99.90
52615;DHT22;38508;53.158;6.614;2023-04-03T01:07:26;5.30;99.90
52615;DHT22;38508;53.158;6.614;2023-04-03T01:09:56;5.30;99.90
52615;DHT22;38508;53.158;6.614;2023-04-03T01:12:25;5.30;99.90
52615;DHT22;38508;53.158;6.614;2023-04-03T01:14:54;5.30;99.90
52615;DHT22;38508;53.158;6.614;2023-04-03T01:17:36;5.40;99.90
52615;DHT22;38508;53.158;6.614;2023-04-03T01:23:12;5.20;99.90
52615;DHT22;38508;53.158;6.614;2023-04-03T01:25:42;5.20;99.90
52615;DHT22;38508;53.158;6.614;2023-04-03T01:28:13;5.10;99.90
52615;DHT22;38508;53.158;6.614;2023-04-03T01:33:31;5.10;99.90
52615;DHT22;38508;53.158;6.614;2023-04-03T01:35:57;5.10;99.90
52615;DHT22;38508;53.158;6.614;2023-04-03T01:38:23;5.10;99.90
52615;DHT22;38508;53.158;6.614;2023-04-03T01:40:48;5.10;99.90
52615;DHT22;38508;53.158;6.614;2023-04-03T01:43:14;5.00;99.90
52615;DHT22;38508;53.158;6.614;2023-04-03T01:45:40;5.00;99.90
52615;DHT22;38508;53.158;6.614;2023-04-03T01:48:05;5.00;99.90
52615;DHT22;38508;53.158;6.614;2023-04-03T01:50:31;5.00;99.90
52615;DHT22;38508;53.158;6.614;2023-04-03T01:52:57;5.00;99.90
52615;DHT22;38508;53.158;6.614;2023-04-03T01:55:23;5.00;99.90
52615;DHT22;38508;53.158;6.614;2023-04-03T01:57:48;5.00;99.90
52615;DHT22;38508;53.158;6.614;2023-04-03T02:00:14;5.00;99.90
52615;DHT22;38508;53.158;6.614;2023-04-03T02:02:40;5.00;99.90
52615;DHT22;38508;53.158;6.614;2023-04-03T02:05:06;5.00;99.90
52615;DHT22;38508;53.158;6.614;2023-04-03T02:07:32;4.90;99.90
52615;DHT22;38508;53.158;6.614;2023-04-03T02:09:57;4.80;99.90
52615;DHT22;38508;53.158;6.614;2023-04-03T02:12:23;4.80;99.90
52615;DHT22;38508;53.158;6.614;2023-04-03T02:14:49;4.80;99.90
52615;DHT22;38508;53.158;6.614;2023-04-03T02:17:14;4.80;99.90
52615;DHT22;38508;53.158;6.614;2023-04-03T02:19:40;4.80;99.90
52615;DHT22;38508;53.158;6.614;2023-04-03T02:22:06;4.80;99.90
52615;DHT22;38508;53.158;6.614;2023-04-03T02:24:32;4.80;99.90
52615;DHT22;38508;53.158;6.614;2023-04-03T02:26:57;4.70;99.90
52615;DHT22;38508;53.158;6.614;2023-04-03T02:29:23;4.80;99.90
52615;DHT22;38508;53.158;6.614;2023-04-03T02:31:50;4.70;99.90
52615;DHT22;38508;53.158;6.614;2023-04-03T02:34:16;4.70;99.90
52615;DHT22;38508;53.158;6.614;2023-04-03T02:36:41;4.60;99.90
52615;DHT22;38508;53.158;6.614;2023-04-03T02:39:07;4.60;99.90
52615;DHT22;38508;53.158;6.614;2023-04-03T02:41:33;4.60;99.90
52615;DHT22;38508;53.158;6.614;2023-04-03T02:44:05;4.50;99.90
52615;DHT22;38508;53.158;6.614;2023-04-03T02:46:31;4.50;99.90
52615;DHT22;38508;53.158;6.614;2023-04-03T02:48:57;4.40;99.90
52615;DHT22;38508;53.158;6.614;2023-04-03T02:51:23;4.40;99.90
52615;DHT22;38508;53.158;6.614;2023-04-03T02:53:49;4.30;99.90
52615;DHT22;38508;53.158;6.614;2023-04-03T02:56:15;4.30;99.90
52615;DHT22;38508;53.158;6.614;2023-04-03T02:58:42;4.40;99.90
52615;DHT22;38508;53.158;6.614;2023-04-03T03:01:08;4.30;99.90
52615;DHT22;38508;53.158;6.614;2023-04-03T03:03:34;4.20;99.90
52615;DHT22;38508;53.158;6.614;2023-04-03T03:06:09;4.30;99.90
52615;DHT22;38508;53.158;6.614;2023-04-03T03:08:36;4.30;99.90
52615;DHT22;38508;53.158;6.614;2023-04-03T03:11:03;4.20;99.90
52615;DHT22;38508;53.158;6.614;2023-04-03T03:13:29;4.20;99.90
52615;DHT22;38508;53.158;6.614;2023-04-03T03:15:54;4.20;99.90
52615;DHT22;38508;53.158;6.614;2023-04-03T03:18:20;4.20;99.90
52615;DHT22;38508;53.158;6.614;2023-04-03T03:20:46;4.10;99.90
52615;DHT22;38508;53.158;6.614;2023-04-03T03:23:12;4.00;99.90
52615;DHT22;38508;53.158;6.614;2023-04-03T03:25:39;3.90;99.90
52615;DHT22;38508;53.158;6.614;2023-04-03T03:28:05;3.90;99.90
52615;DHT22;38508;53.158;6.614;2023-04-03T03:30:31;4.00;99.90
52615;DHT22;38508;53.158;6.614;2023-04-03T03:32:57;4.10;99.90
52615;DHT22;38508;53.158;6.614;2023-04-03T03:35:23;4.10;99.90
52615;DHT22;38508;53.158;6.614;2023-04-03T03:37:48;4.00;99.90
52615;DHT22;38508;53.158;6.614;2023-04-03T03:40:14;3.90;99.90
52615;DHT22;38508;53.158;6.614;2023-04-03T03:42:40;3.90;99.90
52615;DHT22;38508;53.158;6.614;2023-04-03T03:45:06;4.00;99.90
52615;DHT22;38508;53.158;6.614;2023-04-03T03:47:32;4.00;99.90
52615;DHT22;38508;53.158;6.614;2023-04-03T03:49:58;4.00;99.90
52615;DHT22;38508;53.158;6.614;2023-04-03T03:52:23;4.00;99.90
52615;DHT22;38508;53.158;6.614;2023-04-03T03:54:49;4.00;99.90
52615;DHT22;38508;53.158;6.614;2023-04-03T03:57:14;3.90;99.90
52615;DHT22;38508;53.158;6.614;2023-04-03T03:59:40;3.80;99.90
52615;DHT22;38508;53.158;6.614;2023-04-03T04:02:07;3.90;99.90
52615;DHT22;38508;53.158;6.614;2023-04-03T04:04:33;3.80;99.90
52615;DHT22;38508;53.158;6.614;2023-04-03T04:06:58;3.80;99.90
52615;DHT22;38508;53.158;6.614;2023-04-03T04:09:26;3.90;99.90
52615;DHT22;38508;53.158;6.614;2023-04-03T04:11:52;4.00;99.90
52615;DHT22;38508;53.158;6.614;2023-04-03T04:14:18;3.90;99.90
52615;DHT22;38508;53.158;6.614;2023-04-03T04:16:46;4.00;99.90
52615;DHT22;38508;53.158;6.614;2023-04-03T04:19:12;4.00;99.90
52615;DHT22;38508;53.158;6.614;2023-04-03T04:21:38;4.10;99.90
52615;DHT22;38508;53.158;6.614;2023-04-03T04:24:05;4.10;99.90
52615;DHT22;38508;53.158;6.614;2023-04-03T04:26:31;4.00;99.90
52615;DHT22;38508;53.158;6.614;2023-04-03T04:28:57;3.90;99.90
52615;DHT22;38508;53.158;6.614;2023-04-03T04:31:22;3.90;99.90
52615;DHT22;38508;53.158;6.614;2023-04-03T04:33:48;3.90;99.90
52615;DHT22;38508;53.158;6.614;2023-04-03T04:36:14;3.90;99.90
52615;DHT22;38508;53.158;6.614;2023-04-03T04:38:40;3.80;99.90
52615;DHT22;38508;53.158;6.614;2023-04-03T04:41:06;3.70;99.90
52615;DHT22;38508;53.158;6.614;2023-04-03T04:43:32;3.70;99.90
52615;DHT22;38508;53.158;6.614;2023-04-03T04:46:09;3.70;99.90
52615;DHT22;38508;53.158;6.614;2023-04-03T04:48:36;3.70;99.90
52615;DHT22;38508;53.158;6.614;2023-04-03T04:51:02;3.60;99.90
52615;DHT22;38508;53.158;6.614;2023-04-03T04:53:28;3.60;99.90
52615;DHT22;38508;53.158;6.614;2023-04-03T04:55:53;3.70;99.90
52615;DHT22;38508;53.158;6.614;2023-04-03T04:58:19;3.70;99.90
52615;DHT22;38508;53.158;6.614;2023-04-03T05:00:45;3.80;99.90
52615;DHT22;38508;53.158;6.614;2023-04-03T05:03:11;3.70;99.90
52615;DHT22;38508;53.158;6.614;2023-04-03T05:05:37;3.70;99.90
52615;DHT22;38508;53.158;6.614;2023-04-03T05:08:04;3.70;99.90
52615;DHT22;38508;53.158;6.614;2023-04-03T05:10:30;3.70;99.90
52615;DHT22;38508;53.158;6.614;2023-04-03T05:12:57;3.70;99.90
52615;DHT22;38508;53.158;6.614;2023-04-03T05:15:23;3.60;99.90
52615;DHT22;38508;53.158;6.614;2023-04-03T05:17:48;3.70;99.90
52615;DHT22;38508;53.158;6.614;2023-04-03T05:20:14;3.50;99.90
52615;DHT22;38508;53.158;6.614;2023-04-03T05:22:40;3.50;99.90
52615;DHT22;38508;53.158;6.614;2023-04-03T05:25:06;3.60;99.90
52615;DHT22;38508;53.158;6.614;2023-04-03T05:27:32;3.50;99.90
52615;DHT22;38508;53.158;6.614;2023-04-03T05:29:58;3.60;99.90
52615;DHT22;38508;53.158;6.614;2023-04-03T05:32:24;3.60;99.90
52615;DHT22;38508;53.158;6.614;2023-04-03T05:34:52;3.70;99.90
52615;DHT22;38508;53.158;6.614;2023-04-03T05:37:18;3.70;99.90
52615;DHT22;38508;53.158;6.614;2023-04-03T05:39:43;3.80;99.90
52615;DHT22;38508;53.158;6.614;2023-04-03T05:42:09;3.80;99.90
52615;DHT22;38508;53.158;6.614;2023-04-03T05:44:37;3.70;99.90
52615;DHT22;38508;53.158;6.614;2023-04-03T05:47:03;3.70;99.90
52615;DHT22;38508;53.158;6.614;2023-04-03T05:49:29;3.80;99.90
52615;DHT22;38508;53.158;6.614;2023-04-03T05:51:55;3.80;99.90
52615;DHT22;38508;53.158;6.614;2023-04-03T05:54:26;3.80;99.90
52615;DHT22;38508;53.158;6.614;2023-04-03T05:56:53;4.00;99.90
52615;DHT22;38508;53.158;6.614;2023-04-03T05:59:19;4.10;99.90
52615;DHT22;38508;53.158;6.614;2023-04-03T06:01:46;4.10;99.90
52615;DHT22;38508;53.158;6.614;2023-04-03T06:04:12;4.10;99.90
52615;DHT22;38508;53.158;6.614;2023-04-03T06:06:53;4.20;99.90
52615;DHT22;38508;53.158;6.614;2023-04-03T06:09:21;4.20;99.90
52615;DHT22;38508;53.158;6.614;2023-04-03T06:11:47;4.10;99.90
52615;DHT22;38508;53.158;6.614;2023-04-03T06:14:13;4.10;99.90
52615;DHT22;38508;53.158;6.614;2023-04-03T06:16:38;4.10;99.90
52615;DHT22;38508;53.158;6.614;2023-04-03T06:19:05;4.20;99.90
52615;DHT22;38508;53.158;6.614;2023-04-03T06:21:32;4.40;99.90
52615;DHT22;38508;53.158;6.614;2023-04-03T06:23:58;4.40;99.90
52615;DHT22;38508;53.158;6.614;2023-04-03T06:26:24;4.40;99.90
52615;DHT22;38508;53.158;6.614;2023-04-03T06:28:49;4.50;99.90
52615;DHT22;38508;53.158;6.614;2023-04-03T06:31:15;4.60;99.90
52615;DHT22;38508;53.158;6.614;2023-04-03T06:33:42;4.50;99.90
52615;DHT22;38508;53.158;6.614;2023-04-03T06:36:09;4.60;99.90
52615;DHT22;38508;53.158;6.614;2023-04-03T06:38:35;4.70;99.90
52615;DHT22;38508;53.158;6.614;2023-04-03T06:41:01;4.60;99.90
52615;DHT22;38508;53.158;6.614;2023-04-03T06:43:27;4.60;99.90
52615;DHT22;38508;53.158;6.614;2023-04-03T06:45:52;4.60;99.90
52615;DHT22;38508;53.158;6.614;2023-04-03T06:48:18;4.80;99.90
52615;DHT22;38508;53.158;6.614;2023-04-03T06:50:44;4.90;99.90
52615;DHT22;38508;53.158;6.614;2023-04-03T06:53:10;4.90;99.90
52615;DHT22;38508;53.158;6.614;2023-04-03T06:55:36;5.10;99.90
52615;DHT22;38508;53.158;6.614;2023-04-03T06:58:02;5.10;99.90
52615;DHT22;38508;53.158;6.614;2023-04-03T07:00:29;5.10;99.90
52615;DHT22;38508;53.158;6.614;2023-04-03T07:02:55;5.00;99.90
52615;DHT22;38508;53.158;6.614;2023-04-03T07:05:23;5.00;99.90
52615;DHT22;38508;53.158;6.614;2023-04-03T07:07:50;5.00;99.90
52615;DHT22;38508;53.158;6.614;2023-04-03T07:10:16;5.00;99.90
52615;DHT22;38508;53.158;6.614;2023-04-03T07:12:42;5.00;99.90
52615;DHT22;38508;53.158;6.614;2023-04-03T07:15:09;5.00;99.90
52615;DHT22;38508;53.158;6.614;2023-04-03T07:17:35;5.00;99.90
52615;DHT22;38508;53.158;6.614;2023-04-03T07:20:02;4.90;99.90
52615;DHT22;38508;53.158;6.614;2023-04-03T07:22:29;5.10;99.90
52615;DHT22;38508;53.158;6.614;2023-04-03T07:24:55;5.30;99.90
52615;DHT22;38508;53.158;6.614;2023-04-03T07:27:21;5.30;99.90
52615;DHT22;38508;53.158;6.614;2023-04-03T07:29:46;5.40;99.90
52615;DHT22;38508;53.158;6.614;2023-04-03T07:32:14;5.40;99.90
52615;DHT22;38508;53.158;6.614;2023-04-03T07:34:40;5.30;99.90
52615;DHT22;38508;53.158;6.614;2023-04-03T07:37:06;5.30;99.90
52615;DHT22;38508;53.158;6.614;2023-04-03T07:39:32;5.30;99.90
52615;DHT22;38508;53.158;6.614;2023-04-03T07:41:58;5.40;99.90
52615;DHT22;38508;53.158;6.614;2023-04-03T07:44:24;5.40;99.90
52615;DHT22;38508;53.158;6.614;2023-04-03T07:46:50;5.50;99.90
52615;DHT22;38508;53.158;6.614;2023-04-03T07:49:17;5.60;99.90
52615;DHT22;38508;53.158;6.614;2023-04-03T07:51:44;5.70;99.90
52615;DHT22;38508;53.158;6.614;2023-04-03T07:54:10;5.90;99.90
52615;DHT22;38508;53.158;6.614;2023-04-03T07:56:36;5.70;99.90
52615;DHT22;38508;53.158;6.614;2023-04-03T07:59:02;5.50;99.90
52615;DHT22;38508;53.158;6.614;2023-04-03T08:01:28;5.50;99.90
52615;DHT22;38508;53.158;6.614;2023-04-03T08:03:54;5.70;99.90
52615;DHT22;38508;53.158;6.614;2023-04-03T08:06:19;5.80;99.90
52615;DHT22;38508;53.158;6.614;2023-04-03T08:08:45;6.00;99.90
52615;DHT22;38508;53.158;6.614;2023-04-03T08:11:14;6.00;99.90
52615;DHT22;38508;53.158;6.614;2023-04-03T08:13:39;6.00;99.90
52615;DHT22;38508;53.158;6.614;2023-04-03T08:16:08;6.10;99.90
52615;DHT22;38508;53.158;6.614;2023-04-03T08:18:34;6.20;99.90
52615;DHT22;38508;53.158;6.614;2023-04-03T08:21:00;6.30;99.90
52615;DHT22;38508;53.158;6.614;2023-04-03T08:23:26;6.40;99.90
52615;DHT22;38508;53.158;6.614;2023-04-03T08:25:52;6.50;99.90
52615;DHT22;38508;53.158;6.614;2023-04-03T08:28:17;6.40;99.90
52615;DHT22;38508;53.158;6.614;2023-04-03T08:30:44;6.60;99.90
52615;DHT22;38508;53.158;6.614;2023-04-03T08:33:10;6.40;99.90
52615;DHT22;38508;53.158;6.614;2023-04-03T08:35:40;6.60;99.90
52615;DHT22;38508;53.158;6.614;2023-04-03T08:38:07;6.80;99.90
52615;DHT22;38508;53.158;6.614;2023-04-03T08:40:33;6.90;99.90
52615;DHT22;38508;53.158;6.614;2023-04-03T08:43:12;6.80;99.90
52615;DHT22;38508;53.158;6.614;2023-04-03T08:45:50;7.10;99.90
52615;DHT22;38508;53.158;6.614;2023-04-03T08:48:29;7.10;99.90
52615;DHT22;38508;53.158;6.614;2023-04-03T08:51:14;7.30;99.90
52615;DHT22;38508;53.158;6.614;2023-04-03T08:53:50;7.60;99.90
52615;DHT22;38508;53.158;6.614;2023-04-03T08:56:20;7.90;99.90
52615;DHT22;38508;53.158;6.614;2023-04-03T08:58:50;7.70;99.90
52615;DHT22;38508;53.158;6.614;2023-04-03T09:01:23;7.80;99.90
52615;DHT22;38508;53.158;6.614;2023-04-03T09:03:50;8.00;99.90
52615;DHT22;38508;53.158;6.614;2023-04-03T09:06:21;8.10;99.90
52615;DHT22;38508;53.158;6.614;2023-04-03T09:17:20;7.80;99.90
52615;DHT22;38508;53.158;6.614;2023-04-03T09:22:27;8.00;99.90
52615;DHT22;38508;53.158;6.614;2023-04-03T09:25:02;8.10;99.90
52615;DHT22;38508;53.158;6.614;2023-04-03T09:27:27;8.30;99.90
52615;DHT22;38508;53.158;6.614;2023-04-03T09:29:55;8.50;99.90
52615;DHT22;38508;53.158;6.614;2023-04-03T09:32:29;8.60;99.90
52615;DHT22;38508;53.158;6.614;2023-04-03T09:34:59;8.50;99.90
52615;DHT22;38508;53.158;6.614;2023-04-03T09:37:37;8.50;99.90
52615;DHT22;38508;53.158;6.614;2023-04-03T09:40:04;9.00;99.90
52615;DHT22;38508;53.158;6.614;2023-04-03T09:42:31;9.10;99.90
52615;DHT22;38508;53.158;6.614;2023-04-03T09:45:03;9.10;99.90
52615;DHT22;38508;53.158;6.614;2023-04-03T09:47:34;9.10;99.90
52615;DHT22;38508;53.158;6.614;2023-04-03T09:52:49;9.40;99.90
52615;DHT22;38508;53.158;6.614;2023-04-03T09:55:26;9.40;99.90
52615;DHT22;38508;53.158;6.614;2023-04-03T09:58:03;9.20;99.90
52615;DHT22;38508;53.158;6.614;2023-04-03T10:00:37;9.20;99.90
52615;DHT22;38508;53.158;6.614;2023-04-03T10:03:03;9.40;99.90
52615;DHT22;38508;53.158;6.614;2023-04-03T10:05:39;9.40;99.90
52615;DHT22;38508;53.158;6.614;2023-04-03T10:10:42;9.60;99.90
52615;DHT22;38508;53.158;6.614;2023-04-03T10:15:45;9.30;99.90
52615;DHT22;38508;53.158;6.614;2023-04-03T10:18:42;9.60;99.90
52615;DHT22;38508;53.158;6.614;2023-04-03T10:26:57;10.60;99.90
52615;DHT22;38508;53.158;6.614;2023-04-03T10:29:39;10.80;99.90
52615;DHT22;38508;53.158;6.614;2023-04-03T10:35:20;11.10;99.90
52615;DHT22;38508;53.158;6.614;2023-04-03T10:51:29;11.10;99.90
52615;DHT22;38508;53.158;6.614;2023-04-03T10:54:20;11.40;99.90
52615;DHT22;38508;53.158;6.614;2023-04-03T10:56:48;11.60;99.90
52615;DHT22;38508;53.158;6.614;2023-04-03T10:59:32;11.70;99.90
52615;DHT22;38508;53.158;6.614;2023-04-03T11:02:25;12.00;99.90
52615;DHT22;38508;53.158;6.614;2023-04-03T11:04:55;12.20;99.90
52615;DHT22;38508;53.158;6.614;2023-04-03T11:07:31;12.20;99.90
52615;DHT22;38508;53.158;6.614;2023-04-03T11:13:11;12.20;99.90
52615;DHT22;38508;53.158;6.614;2023-04-03T11:15:38;12.40;99.90
52615;DHT22;38508;53.158;6.614;2023-04-03T11:18:54;12.10;99.90
52615;DHT22;38508;53.158;6.614;2023-04-03T11:23:47;12.60;99.90
52615;DHT22;38508;53.158;6.614;2023-04-03T11:26:16;12.70;99.90
52615;DHT22;38508;53.158;6.614;2023-04-03T11:28:42;12.40;99.90
52615;DHT22;38508;53.158;6.614;2023-04-03T11:31:36;11.70;99.90
52615;DHT22;38508;53.158;6.614;2023-04-03T11:40:19;13.00;99.90
52615;DHT22;38508;53.158;6.614;2023-04-03T11:42:38;13.10;99.90
52615;DHT22;38508;53.158;6.614;2023-04-03T11:50:45;14.00;99.90
52615;DHT22;38508;53.158;6.614;2023-04-03T11:58:26;13.40;99.90
52615;DHT22;38508;53.158;6.614;2023-04-03T12:00:56;13.40;99.90
52615;DHT22;38508;53.158;6.614;2023-04-03T12:08:27;12.40;99.90
52615;DHT22;38508;53.158;6.614;2023-04-03T12:16:20;12.30;99.90
52615;DHT22;38508;53.158;6.614;2023-04-03T12:24:31;12.60;99.90
52615;DHT22;38508;53.158;6.614;2023-04-03T12:29:27;12.90;99.90
52615;DHT22;38508;53.158;6.614;2023-04-03T12:32:17;12.90;99.90
52615;DHT22;38508;53.158;6.614;2023-04-03T12:37:40;12.90;99.90
52615;DHT22;38508;53.158;6.614;2023-04-03T12:43:05;14.10;99.90
52615;DHT22;38508;53.158;6.614;2023-04-03T12:45:44;14.50;99.90
52615;DHT22;38508;53.158;6.614;2023-04-03T12:48:20;14.70;99.90
52615;DHT22;38508;53.158;6.614;2023-04-03T12:50:49;15.00;99.90
52615;DHT22;38508;53.158;6.614;2023-04-03T12:53:19;15.40;99.90
52615;DHT22;38508;53.158;6.614;2023-04-03T12:55:46;15.90;99.90
52615;DHT22;38508;53.158;6.614;2023-04-03T12:58:24;16.10;99.90
52615;DHT22;38508;53.158;6.614;2023-04-03T13:01:25;15.90;99.90
52615;DHT22;38508;53.158;6.614;2023-04-03T13:03:57;15.00;99.90
52615;DHT22;38508;53.158;6.614;2023-04-03T13:06:30;14.30;99.90
52615;DHT22;38508;53.158;6.614;2023-04-03T13:08:59;14.20;99.90
52615;DHT22;38508;53.158;6.614;2023-04-03T13:11:32;13.80;99.90
52615;DHT22;38508;53.158;6.614;2023-04-03T13:14:04;14.20;99.90
52615;DHT22;38508;53.158;6.614;2023-04-03T13:16:32;14.30;99.90
52615;DHT22;38508;53.158;6.614;2023-04-03T13:18:58;14.20;99.90
52615;DHT22;38508;53.158;6.614;2023-04-03T13:21:30;13.60;99.90
52615;DHT22;38508;53.158;6.614;2023-04-03T13:23:58;14.10;99.90
52615;DHT22;38508;53.158;6.614;2023-04-03T13:26:28;13.70;99.90
52615;DHT22;38508;53.158;6.614;2023-04-03T13:28:57;13.60;99.90
52615;DHT22;38508;53.158;6.614;2023-04-03T13:31:34;13.90;99.90
52615;DHT22;38508;53.158;6.614;2023-04-03T13:34:09;14.40;99.90
52615;DHT22;38508;53.158;6.614;2023-04-03T13:36:41;15.30;99.90
52615;DHT22;38508;53.158;6.614;2023-04-03T13:41:46;15.70;99.90
52615;DHT22;38508;53.158;6.614;2023-04-03T13:44:27;15.50;99.90
52615;DHT22;38508;53.158;6.614;2023-04-03T13:49:34;15.10;99.90
52615;DHT22;38508;53.158;6.614;2023-04-03T13:52:21;15.00;99.90
52615;DHT22;38508;53.158;6.614;2023-04-03T13:55:02;14.20;99.90
52615;DHT22;38508;53.158;6.614;2023-04-03T13:57:28;13.60;99.90
52615;DHT22;38508;53.158;6.614;2023-04-03T13:59:54;13.50;99.90
52615;DHT22;38508;53.158;6.614;2023-04-03T14:02:22;12.90;99.90
52615;DHT22;38508;53.158;6.614;2023-04-03T14:04:52;12.70;99.90
52615;DHT22;38508;53.158;6.614;2023-04-03T14:07:21;13.10;99.90
52615;DHT22;38508;53.158;6.614;2023-04-03T14:09:48;13.00;99.90
52615;DHT22;38508;53.158;6.614;2023-04-03T14:14:46;13.00;99.90
52615;DHT22;38508;53.158;6.614;2023-04-03T14:17:20;12.90;99.90
52615;DHT22;38508;53.158;6.614;2023-04-03T14:19:48;12.90;99.90
52615;DHT22;38508;53.158;6.614;2023-04-03T14:22:25;13.00;99.90
52615;DHT22;38508;53.158;6.614;2023-04-03T14:24:52;12.90;99.90
52615;DHT22;38508;53.158;6.614;2023-04-03T14:27:21;13.20;99.90
52615;DHT22;38508;53.158;6.614;2023-04-03T14:29:49;12.90;99.90
52615;DHT22;38508;53.158;6.614;2023-04-03T14:32:15;12.70;99.90
52615;DHT22;38508;53.158;6.614;2023-04-03T14:34:42;12.80;99.90
52615;DHT22;38508;53.158;6.614;2023-04-03T14:37:18;12.90;99.90
52615;DHT22;38508;53.158;6.614;2023-04-03T14:39:45;12.80;99.90
52615;DHT22;38508;53.158;6.614;2023-04-03T14:42:16;12.70;99.90
52615;DHT22;38508;53.158;6.614;2023-04-03T14:44:42;12.70;99.90
52615;DHT22;38508;53.158;6.614;2023-04-03T14:47:14;12.70;99.90
52615;DHT22;38508;53.158;6.614;2023-04-03T14:49:40;12.90;99.90
52615;DHT22;38508;53.158;6.614;2023-04-03T14:52:18;13.00;99.90
52615;DHT22;38508;53.158;6.614;2023-04-03T14:54:44;13.00;99.90
52615;DHT22;38508;53.158;6.614;2023-04-03T14:57:13;12.90;99.90
52615;DHT22;38508;53.158;6.614;2023-04-03T14:59:39;13.00;99.90
52615;DHT22;38508;53.158;6.614;2023-04-03T15:04:54;13.10;99.90
52615;DHT22;38508;53.158;6.614;2023-04-03T15:07:20;13.50;99.90
52615;DHT22;38508;53.158;6.614;2023-04-03T15:09:46;14.00;99.90
52615;DHT22;38508;53.158;6.614;2023-04-03T15:12:12;14.40;99.90
52615;DHT22;38508;53.158;6.614;2023-04-03T15:14:37;14.50;99.90
52615;DHT22;38508;53.158;6.614;2023-04-03T15:17:12;15.00;99.90
52615;DHT22;38508;53.158;6.614;2023-04-03T15:19:39;15.50;99.90
52615;DHT22;38508;53.158;6.614;2023-04-03T15:22:06;16.00;99.90
52615;DHT22;38508;53.158;6.614;2023-04-03T15:24:32;16.10;99.90
52615;DHT22;38508;53.158;6.614;2023-04-03T15:26:58;16.80;99.90
52615;DHT22;38508;53.158;6.614;2023-04-03T15:29:25;17.00;99.90
52615;DHT22;38508;53.158;6.614;2023-04-03T15:31:51;17.60;99.90
52615;DHT22;38508;53.158;6.614;2023-04-03T15:34:19;17.50;99.90
52615;DHT22;38508;53.158;6.614;2023-04-03T15:36:46;17.90;99.90
52615;DHT22;38508;53.158;6.614;2023-04-03T15:39:12;17.80;99.90
52615;DHT22;38508;53.158;6.614;2023-04-03T15:41:43;17.60;99.90
52615;DHT22;38508;53.158;6.614;2023-04-03T15:44:09;17.00;99.90
52615;DHT22;38508;53.158;6.614;2023-04-03T15:46:35;16.00;99.90
52615;DHT22;38508;53.158;6.614;2023-04-03T15:49:01;14.60;99.90
52615;DHT22;38508;53.158;6.614;2023-04-03T15:51:26;14.30;99.90
52615;DHT22;38508;53.158;6.614;2023-04-03T15:53:52;14.60;99.90
52615;DHT22;38508;53.158;6.614;2023-04-03T15:56:18;14.70;99.90
52615;DHT22;38508;53.158;6.614;2023-04-03T15:58:43;14.20;99.90
52615;DHT22;38508;53.158;6.614;2023-04-03T16:01:11;13.80;99.90
52615;DHT22;38508;53.158;6.614;2023-04-03T16:03:36;13.40;99.90
52615;DHT22;38508;53.158;6.614;2023-04-03T16:06:04;13.50;99.90
52615;DHT22;38508;53.158;6.614;2023-04-03T16:08:30;13.20;99.90
52615;DHT22;38508;53.158;6.614;2023-04-03T16:10:56;13.00;99.90
52615;DHT22;38508;53.158;6.614;2023-04-03T16:13:21;13.00;99.90
52615;DHT22;38508;53.158;6.614;2023-04-03T16:15:47;12.80;99.90
52615;DHT22;38508;53.158;6.614;2023-04-03T16:18:14;12.60;99.90
52615;DHT22;38508;53.158;6.614;2023-04-03T16:20:40;12.50;99.90
52615;DHT22;38508;53.158;6.614;2023-04-03T16:23:05;12.50;99.90
52615;DHT22;38508;53.158;6.614;2023-04-03T16:25:31;12.80;99.90
52615;DHT22;38508;53.158;6.614;2023-04-03T16:27:57;12.60;99.90
52615;DHT22;38508;53.158;6.614;2023-04-03T16:30:23;12.70;99.90
52615;DHT22;38508;53.158;6.614;2023-04-03T16:32:49;12.90;99.90
52615;DHT22;38508;53.158;6.614;2023-04-03T16:35:15;12.60;99.90
52615;DHT22;38508;53.158;6.614;2023-04-03T16:37:40;12.30;99.90
52615;DHT22;38508;53.158;6.614;2023-04-03T16:40:07;11.60;99.90
52615;DHT22;38508;53.158;6.614;2023-04-03T16:42:33;11.70;99.90
52615;DHT22;38508;53.158;6.614;2023-04-03T16:44:59;11.80;99.90
52615;DHT22;38508;53.158;6.614;2023-04-03T16:47:28;11.40;99.90
52615;DHT22;38508;53.158;6.614;2023-04-03T16:49:53;11.30;99.90
52615;DHT22;38508;53.158;6.614;2023-04-03T16:52:19;11.30;99.90
52615;DHT22;38508;53.158;6.614;2023-04-03T16:54:45;11.10;99.90
52615;DHT22;38508;53.158;6.614;2023-04-03T16:57:11;11.10;99.90
52615;DHT22;38508;53.158;6.614;2023-04-03T16:59:37;11.20;99.90
52615;DHT22;38508;53.158;6.614;2023-04-03T17:02:03;11.20;99.90
52615;DHT22;38508;53.158;6.614;2023-04-03T17:04:28;11.20;99.90
52615;DHT22;38508;53.158;6.614;2023-04-03T17:06:54;11.10;99.90
52615;DHT22;38508;53.158;6.614;2023-04-03T17:09:20;10.90;99.90
52615;DHT22;38508;53.158;6.614;2023-04-03T17:11:48;10.90;99.90
52615;DHT22;38508;53.158;6.614;2023-04-03T17:14:13;10.90;99.90
52615;DHT22;38508;53.158;6.614;2023-04-03T17:16:39;10.70;99.90
52615;DHT22;38508;53.158;6.614;2023-04-03T17:19:05;10.60;99.90
52615;DHT22;38508;53.158;6.614;2023-04-03T17:21:33;10.50;99.90
52615;DHT22;38508;53.158;6.614;2023-04-03T17:24:02;10.40;99.90
52615;DHT22;38508;53.158;6.614;2023-04-03T17:26:28;10.00;99.90
52615;DHT22;38508;53.158;6.614;2023-04-03T17:28:54;10.00;99.90
52615;DHT22;38508;53.158;6.614;2023-04-03T17:31:20;9.90;99.90
52615;DHT22;38508;53.158;6.614;2023-04-03T17:33:45;10.00;99.90